CSN0117 WMKK-WSSS
Flight info
| Callsign | CSN0117 |
|---|---|
| Flight time | 0h 42m |
| Altitude | 14000 |
| Route | RUSBU Y511 TOPOR A464 ARAMA TEBUN |
| Aircraft | A320/M-SDE2E3FGHIJ1RWXY/LB1 |
Departure
| Time | 2026-05-06 14:06 |
|---|---|
| Airport | Kuala Lumpur International Airport (WMKK) |
Arrival
| Time | 2026-05-06 14:48 |
|---|---|
| Airport | Singapore Changi Airport (WSSS) |
| Time | Latitude | Longitude | Altitude | Speed | Heading |
|---|---|---|---|---|---|
| 2026-05-06 13:38 | 2.73649 | 101.71175 | 63 ft | 0 kts | 146° |
| 2026-05-06 13:52 | 2.73659 | 101.71168 | 54 ft | 3 kts | 146° |
| 2026-05-06 13:52 | 2.73700 | 101.71142 | 55 ft | 8 kts | 147° |
| 2026-05-06 13:52 | 2.73745 | 101.71115 | 55 ft | 8 kts | 198° |
| 2026-05-06 13:52 | 2.73757 | 101.71120 | 58 ft | 0 kts | 235° |
| 2026-05-06 13:59 | 2.73746 | 101.71103 | 57 ft | 13 kts | 236° |
| 2026-05-06 13:59 | 2.73674 | 101.70995 | 63 ft | 20 kts | 234° |
| 2026-05-06 13:59 | 2.73589 | 101.70870 | 57 ft | 24 kts | 237° |
| 2026-05-06 14:00 | 2.73541 | 101.70794 | 60 ft | 0 kts | 237° |
| 2026-05-06 14:00 | 2.73500 | 101.70737 | 60 ft | 18 kts | 217° |
| 2026-05-06 14:00 | 2.73394 | 101.70769 | 59 ft | 19 kts | 144° |
| 2026-05-06 14:00 | 2.73275 | 101.70849 | 57 ft | 23 kts | 146° |
| 2026-05-06 14:01 | 2.73135 | 101.70947 | 58 ft | 26 kts | 144° |
| 2026-05-06 14:01 | 2.72970 | 101.71053 | 54 ft | 30 kts | 145° |
| 2026-05-06 14:01 | 2.72791 | 101.71173 | 60 ft | 32 kts | 146° |
| 2026-05-06 14:01 | 2.72596 | 101.71303 | 58 ft | 35 kts | 146° |
| 2026-05-06 14:02 | 2.72420 | 101.71421 | 53 ft | 31 kts | 146° |
| 2026-05-06 14:02 | 2.72317 | 101.71437 | 57 ft | 9 kts | 239° |
| 2026-05-06 14:02 | 2.72258 | 101.71358 | 59 ft | 20 kts | 234° |
| 2026-05-06 14:02 | 2.72245 | 101.71340 | 59 ft | 0 kts | 233° |
| 2026-05-06 14:04 | 2.72244 | 101.71339 | 59 ft | 1 kts | 233° |
| 2026-05-06 14:05 | 2.72198 | 101.71256 | 59 ft | 25 kts | 274° |
| 2026-05-06 14:05 | 2.72278 | 101.71173 | 53 ft | 12 kts | 327° |
| 2026-05-06 14:05 | 2.72308 | 101.71152 | 59 ft | 1 kts | 325° |
| 2026-05-06 14:05 | 2.72315 | 101.71147 | 58 ft | 0 kts | 326° |
| 2026-05-06 14:06 | 2.72508 | 101.71019 | 58 ft | 90 kts | 326° |
| 2026-05-06 14:06 | 2.73314 | 101.70469 | 163 ft | 176 kts | 325° |
| 2026-05-06 14:06 | 2.74299 | 101.69793 | 904 ft | 177 kts | 325° |
| 2026-05-06 14:06 | 2.75434 | 101.69033 | 1571 ft | 216 kts | 326° |
| 2026-05-06 14:07 | 2.76725 | 101.68017 | 2249 ft | 255 kts | 317° |
| 2026-05-06 14:07 | 2.78033 | 101.66634 | 2916 ft | 292 kts | 310° |
| 2026-05-06 14:07 | 2.79385 | 101.64973 | 3581 ft | 324 kts | 308° |
| 2026-05-06 14:07 | 2.80827 | 101.63121 | 4243 ft | 351 kts | 308° |
| 2026-05-06 14:08 | 2.82383 | 101.61137 | 5018 ft | 368 kts | 308° |
| 2026-05-06 14:08 | 2.83924 | 101.59218 | 6192 ft | 347 kts | 309° |
| 2026-05-06 14:08 | 2.85395 | 101.57429 | 6706 ft | 318 kts | 309° |
| 2026-05-06 14:08 | 2.86779 | 101.55779 | 6965 ft | 317 kts | 310° |
| 2026-05-06 14:09 | 2.88169 | 101.54132 | 7112 ft | 296 kts | 310° |
| 2026-05-06 14:09 | 2.89448 | 101.52622 | 7146 ft | 274 kts | 310° |
| 2026-05-06 14:09 | 2.90644 | 101.51132 | 7153 ft | 275 kts | 302° |
| 2026-05-06 14:09 | 2.91398 | 101.49384 | 7152 ft | 275 kts | 283° |
| 2026-05-06 14:10 | 2.91537 | 101.47484 | 7161 ft | 275 kts | 264° |
| 2026-05-06 14:10 | 2.91140 | 101.45624 | 7583 ft | 275 kts | 245° |
| 2026-05-06 14:10 | 2.90014 | 101.44072 | 8590 ft | 280 kts | 226° |
| 2026-05-06 14:10 | 2.88588 | 101.42765 | 9701 ft | 284 kts | 221° |
| 2026-05-06 14:11 | 2.86952 | 101.41627 | 10667 ft | 295 kts | 204° |
| 2026-05-06 14:11 | 2.84908 | 101.41153 | 11401 ft | 312 kts | 181° |
| 2026-05-06 14:11 | 2.82727 | 101.41560 | 12088 ft | 330 kts | 157° |
| 2026-05-06 14:11 | 2.80770 | 101.42817 | 12851 ft | 342 kts | 136° |
| 2026-05-06 14:12 | 2.79259 | 101.44675 | 13744 ft | 348 kts | 126° |
| 2026-05-06 14:12 | 2.77829 | 101.46649 | 14647 ft | 353 kts | 126° |
| 2026-05-06 14:12 | 2.76386 | 101.48653 | 15518 ft | 357 kts | 126° |
| 2026-05-06 14:12 | 2.74925 | 101.50684 | 16366 ft | 362 kts | 126° |
| 2026-05-06 14:13 | 2.73463 | 101.52714 | 16819 ft | 365 kts | 126° |
| 2026-05-06 14:13 | 2.71980 | 101.54777 | 16973 ft | 366 kts | 126° |
| 2026-05-06 14:13 | 2.70458 | 101.56892 | 17008 ft | 378 kts | 126° |
| 2026-05-06 14:13 | 2.68919 | 101.59026 | 17009 ft | 379 kts | 126° |
| 2026-05-06 14:14 | 2.67379 | 101.61158 | 17009 ft | 378 kts | 126° |
| 2026-05-06 14:14 | 2.65835 | 101.63291 | 17009 ft | 378 kts | 126° |
| 2026-05-06 14:14 | 2.64288 | 101.65424 | 17009 ft | 378 kts | 126° |
| 2026-05-06 14:14 | 2.62747 | 101.67553 | 17009 ft | 378 kts | 126° |
| 2026-05-06 14:15 | 2.61204 | 101.69690 | 17009 ft | 378 kts | 126° |
| 2026-05-06 14:15 | 2.59665 | 101.71824 | 17009 ft | 378 kts | 126° |
| 2026-05-06 14:15 | 2.58127 | 101.73957 | 17009 ft | 378 kts | 126° |
| 2026-05-06 14:15 | 2.56606 | 101.76061 | 17010 ft | 378 kts | 126° |
| 2026-05-06 14:16 | 2.55062 | 101.78193 | 17010 ft | 378 kts | 126° |
| 2026-05-06 14:16 | 2.53497 | 101.80355 | 17013 ft | 396 kts | 126° |
| 2026-05-06 14:16 | 2.51829 | 101.82662 | 17007 ft | 422 kts | 126° |
| 2026-05-06 14:16 | 2.50068 | 101.85097 | 17008 ft | 441 kts | 126° |
| 2026-05-06 14:17 | 2.48259 | 101.87601 | 17008 ft | 445 kts | 126° |
| 2026-05-06 14:17 | 2.46446 | 101.90113 | 17009 ft | 445 kts | 126° |
| 2026-05-06 14:17 | 2.44632 | 101.92627 | 17009 ft | 446 kts | 126° |
| 2026-05-06 14:17 | 2.42822 | 101.95135 | 17009 ft | 445 kts | 126° |
| 2026-05-06 14:18 | 2.41007 | 101.97649 | 17009 ft | 445 kts | 126° |
| 2026-05-06 14:18 | 2.39192 | 102.00159 | 17009 ft | 445 kts | 126° |
| 2026-05-06 14:18 | 2.37401 | 102.02632 | 17009 ft | 445 kts | 126° |
| 2026-05-06 14:18 | 2.35584 | 102.05141 | 17009 ft | 445 kts | 126° |
| 2026-05-06 14:19 | 2.33771 | 102.07649 | 17010 ft | 445 kts | 126° |
| 2026-05-06 14:19 | 2.31957 | 102.10158 | 17009 ft | 445 kts | 126° |
| 2026-05-06 14:19 | 2.30142 | 102.12671 | 17007 ft | 445 kts | 126° |
| 2026-05-06 14:19 | 2.28330 | 102.15181 | 17007 ft | 445 kts | 126° |
| 2026-05-06 14:20 | 2.26518 | 102.17688 | 17008 ft | 445 kts | 126° |
| 2026-05-06 14:20 | 2.24701 | 102.20200 | 17008 ft | 445 kts | 126° |
| 2026-05-06 14:20 | 2.22887 | 102.22706 | 17007 ft | 445 kts | 126° |
| 2026-05-06 14:20 | 2.21070 | 102.25215 | 17006 ft | 445 kts | 126° |
| 2026-05-06 14:21 | 2.19279 | 102.27690 | 17005 ft | 445 kts | 126° |
| 2026-05-06 14:21 | 2.17465 | 102.30197 | 17005 ft | 445 kts | 126° |
| 2026-05-06 14:21 | 2.15651 | 102.32704 | 17006 ft | 445 kts | 126° |
| 2026-05-06 14:21 | 2.13837 | 102.35212 | 17007 ft | 445 kts | 126° |
| 2026-05-06 14:22 | 2.12024 | 102.37724 | 17008 ft | 445 kts | 126° |
| 2026-05-06 14:22 | 2.10210 | 102.40233 | 17011 ft | 445 kts | 126° |
| 2026-05-06 14:22 | 2.08395 | 102.42739 | 17014 ft | 445 kts | 126° |
| 2026-05-06 14:22 | 2.06575 | 102.45247 | 17017 ft | 445 kts | 126° |
| 2026-05-06 14:23 | 2.04757 | 102.47752 | 17018 ft | 445 kts | 126° |
| 2026-05-06 14:23 | 2.02941 | 102.50259 | 17019 ft | 445 kts | 126° |
| 2026-05-06 14:23 | 2.01145 | 102.52728 | 17017 ft | 445 kts | 126° |
| 2026-05-06 14:23 | 1.99298 | 102.55214 | 17016 ft | 445 kts | 127° |
| 2026-05-06 14:24 | 1.97433 | 102.57688 | 17015 ft | 445 kts | 127° |
| 2026-05-06 14:24 | 1.95561 | 102.60153 | 17017 ft | 445 kts | 127° |
| 2026-05-06 14:24 | 1.93687 | 102.62619 | 17019 ft | 445 kts | 127° |
| 2026-05-06 14:24 | 1.91815 | 102.65084 | 17018 ft | 445 kts | 127° |
| 2026-05-06 14:25 | 1.89949 | 102.67551 | 17017 ft | 445 kts | 127° |
| 2026-05-06 14:25 | 1.88086 | 102.70021 | 17016 ft | 445 kts | 127° |
| 2026-05-06 14:25 | 1.86224 | 102.72496 | 17016 ft | 445 kts | 127° |
| 2026-05-06 14:25 | 1.84365 | 102.74971 | 17016 ft | 445 kts | 127° |
| 2026-05-06 14:26 | 1.82505 | 102.77447 | 17015 ft | 445 kts | 127° |
| 2026-05-06 14:26 | 1.80645 | 102.79920 | 17015 ft | 445 kts | 127° |
| 2026-05-06 14:26 | 1.78809 | 102.82361 | 17015 ft | 445 kts | 127° |
| 2026-05-06 14:26 | 1.76947 | 102.84829 | 17015 ft | 445 kts | 127° |
| 2026-05-06 14:27 | 1.75079 | 102.87301 | 17015 ft | 445 kts | 127° |
| 2026-05-06 14:27 | 1.73315 | 102.89841 | 17013 ft | 445 kts | 120° |
| 2026-05-06 14:27 | 1.71848 | 102.92565 | 17014 ft | 445 kts | 118° |
| 2026-05-06 14:27 | 1.70389 | 102.95300 | 17013 ft | 445 kts | 118° |
| 2026-05-06 14:28 | 1.68936 | 102.98029 | 17014 ft | 445 kts | 118° |
| 2026-05-06 14:28 | 1.67481 | 103.00765 | 17015 ft | 445 kts | 118° |
| 2026-05-06 14:28 | 1.66028 | 103.03499 | 17017 ft | 445 kts | 118° |
| 2026-05-06 14:28 | 1.64576 | 103.06229 | 17017 ft | 445 kts | 118° |
| 2026-05-06 14:29 | 1.63155 | 103.08898 | 16927 ft | 422 kts | 118° |
| 2026-05-06 14:29 | 1.61828 | 103.11386 | 16807 ft | 401 kts | 118° |
| 2026-05-06 14:29 | 1.60554 | 103.13786 | 16684 ft | 381 kts | 118° |
| 2026-05-06 14:29 | 1.59346 | 103.16075 | 16550 ft | 365 kts | 118° |
| 2026-05-06 14:30 | 1.58187 | 103.18271 | 16419 ft | 349 kts | 118° |
| 2026-05-06 14:30 | 1.57078 | 103.20374 | 16296 ft | 336 kts | 118° |
| 2026-05-06 14:30 | 1.56010 | 103.22399 | 16164 ft | 323 kts | 118° |
| 2026-05-06 14:30 | 1.54973 | 103.24366 | 15783 ft | 320 kts | 118° |
| 2026-05-06 14:31 | 1.53920 | 103.26363 | 15029 ft | 330 kts | 118° |
| 2026-05-06 14:31 | 1.52835 | 103.28420 | 14225 ft | 339 kts | 118° |
| 2026-05-06 14:31 | 1.51730 | 103.30514 | 13562 ft | 342 kts | 118° |
| 2026-05-06 14:31 | 1.50639 | 103.32582 | 13040 ft | 339 kts | 118° |
| 2026-05-06 14:32 | 1.49544 | 103.34657 | 12514 ft | 337 kts | 118° |
| 2026-05-06 14:32 | 1.48456 | 103.36719 | 11975 ft | 334 kts | 118° |
| 2026-05-06 14:32 | 1.47377 | 103.38763 | 11437 ft | 331 kts | 118° |
| 2026-05-06 14:32 | 1.46306 | 103.40792 | 10892 ft | 329 kts | 118° |
| 2026-05-06 14:33 | 1.45247 | 103.42800 | 10457 ft | 323 kts | 118° |
| 2026-05-06 14:33 | 1.44225 | 103.44736 | 10330 ft | 307 kts | 118° |
| 2026-05-06 14:33 | 1.43417 | 103.46656 | 10196 ft | 292 kts | 103° |
| 2026-05-06 14:33 | 1.43275 | 103.48639 | 9974 ft | 287 kts | 84° |
| 2026-05-06 14:34 | 1.43729 | 103.50566 | 9280 ft | 284 kts | 73° |
| 2026-05-06 14:34 | 1.44285 | 103.52415 | 8364 ft | 280 kts | 73° |
| 2026-05-06 14:34 | 1.44851 | 103.54266 | 7537 ft | 278 kts | 73° |
| 2026-05-06 14:34 | 1.45421 | 103.56121 | 7251 ft | 279 kts | 73° |
| 2026-05-06 14:35 | 1.45988 | 103.57974 | 7132 ft | 279 kts | 73° |
| 2026-05-06 14:35 | 1.46553 | 103.59828 | 7147 ft | 279 kts | 73° |
| 2026-05-06 14:35 | 1.47116 | 103.61687 | 7155 ft | 279 kts | 73° |
| 2026-05-06 14:35 | 1.47677 | 103.63542 | 7154 ft | 279 kts | 73° |
| 2026-05-06 14:36 | 1.48231 | 103.65376 | 7149 ft | 279 kts | 73° |
| 2026-05-06 14:36 | 1.48792 | 103.67230 | 7150 ft | 275 kts | 73° |
| 2026-05-06 14:36 | 1.49325 | 103.68991 | 7148 ft | 255 kts | 73° |
| 2026-05-06 14:36 | 1.49819 | 103.70637 | 7152 ft | 246 kts | 74° |
| 2026-05-06 14:37 | 1.50088 | 103.72323 | 7151 ft | 246 kts | 86° |
| 2026-05-06 14:37 | 1.50215 | 103.74032 | 7154 ft | 246 kts | 85° |
| 2026-05-06 14:37 | 1.50348 | 103.75740 | 7149 ft | 246 kts | 85° |
| 2026-05-06 14:37 | 1.50485 | 103.77447 | 7153 ft | 246 kts | 85° |
| 2026-05-06 14:38 | 1.50623 | 103.79153 | 7142 ft | 246 kts | 85° |
| 2026-05-06 14:38 | 1.50759 | 103.80831 | 6949 ft | 245 kts | 85° |
| 2026-05-06 14:38 | 1.51014 | 103.82502 | 6579 ft | 243 kts | 73° |
| 2026-05-06 14:38 | 1.51694 | 103.84036 | 6205 ft | 241 kts | 57° |
| 2026-05-06 14:39 | 1.52617 | 103.85433 | 5827 ft | 241 kts | 56° |
| 2026-05-06 14:39 | 1.53523 | 103.86818 | 5385 ft | 234 kts | 57° |
| 2026-05-06 14:39 | 1.54408 | 103.88179 | 4682 ft | 234 kts | 57° |
| 2026-05-06 14:39 | 1.55293 | 103.89539 | 3984 ft | 233 kts | 57° |
| 2026-05-06 14:40 | 1.56206 | 103.90869 | 3240 ft | 233 kts | 52° |
| 2026-05-06 14:40 | 1.57247 | 103.92157 | 2753 ft | 240 kts | 50° |
| 2026-05-06 14:40 | 1.58284 | 103.93408 | 2641 ft | 220 kts | 50° |
| 2026-05-06 14:40 | 1.59184 | 103.94494 | 2647 ft | 192 kts | 50° |
| 2026-05-06 14:41 | 1.59939 | 103.95502 | 2637 ft | 177 kts | 66° |
| 2026-05-06 14:41 | 1.60039 | 103.96703 | 2663 ft | 177 kts | 102° |
| 2026-05-06 14:41 | 1.59708 | 103.97891 | 2657 ft | 177 kts | 109° |
| 2026-05-06 14:41 | 1.59306 | 103.99057 | 2653 ft | 177 kts | 110° |
| 2026-05-06 14:42 | 1.58893 | 104.00220 | 2653 ft | 177 kts | 110° |
| 2026-05-06 14:42 | 1.58478 | 104.01381 | 2657 ft | 177 kts | 110° |
| 2026-05-06 14:42 | 1.58062 | 104.02542 | 2657 ft | 178 kts | 110° |
| 2026-05-06 14:42 | 1.57645 | 104.03702 | 2650 ft | 178 kts | 110° |
| 2026-05-06 14:43 | 1.56961 | 104.04699 | 2632 ft | 176 kts | 148° |
| 2026-05-06 14:43 | 1.55827 | 104.05145 | 2666 ft | 176 kts | 167° |
| 2026-05-06 14:43 | 1.54648 | 104.05407 | 2656 ft | 176 kts | 169° |
| 2026-05-06 14:43 | 1.53436 | 104.05465 | 2644 ft | 174 kts | 190° |
| 2026-05-06 14:44 | 1.52295 | 104.05086 | 2654 ft | 174 kts | 205° |
| 2026-05-06 14:44 | 1.51184 | 104.04607 | 2548 ft | 172 kts | 204° |
| 2026-05-06 14:44 | 1.50081 | 104.04142 | 2215 ft | 172 kts | 204° |
| 2026-05-06 14:45 | 1.48126 | 104.03324 | 2133 ft | 132 kts | 204° |
| 2026-05-06 14:45 | 1.47297 | 104.02976 | 1937 ft | 127 kts | 204° |
| 2026-05-06 14:45 | 1.46485 | 104.02630 | 1690 ft | 127 kts | 205° |
| 2026-05-06 14:45 | 1.45654 | 104.02264 | 1484 ft | 131 kts | 204° |
| 2026-05-06 14:46 | 1.44814 | 104.01939 | 1327 ft | 131 kts | 200° |
| 2026-05-06 14:46 | 1.43956 | 104.01630 | 1196 ft | 131 kts | 201° |
| 2026-05-06 14:46 | 1.43121 | 104.01271 | 1050 ft | 130 kts | 205° |
| 2026-05-06 14:46 | 1.42296 | 104.00898 | 909 ft | 130 kts | 205° |
| 2026-05-06 14:47 | 1.41479 | 104.00534 | 941 ft | 125 kts | 205° |
| 2026-05-06 14:47 | 1.40677 | 104.00190 | 1000 ft | 125 kts | 206° |
| 2026-05-06 14:47 | 1.39871 | 103.99850 | 965 ft | 125 kts | 203° |
| 2026-05-06 14:47 | 1.39072 | 103.99507 | 780 ft | 125 kts | 203° |
| 2026-05-06 14:48 | 1.38290 | 103.99168 | 520 ft | 124 kts | 204° |
| 2026-05-06 14:48 | 1.37458 | 103.98816 | 111 ft | 131 kts | 203° |
| 2026-05-06 14:48 | 1.36670 | 103.98487 | 27 ft | 112 kts | 203° |
| 2026-05-06 14:48 | 1.36163 | 103.98288 | 28 ft | 44 kts | 188° |
| 2026-05-06 14:49 | 1.35995 | 103.98281 | 27 ft | 2 kts | 177° |
| 2026-05-06 14:49 | 1.35998 | 103.98281 | 27 ft | 0 kts | 173° |
| 2026-05-06 14:51 | 1.35997 | 103.98281 | 27 ft | 2 kts | 172° |
| 2026-05-06 14:52 | 1.35949 | 103.98291 | 28 ft | 11 kts | 150° |
| 2026-05-06 14:52 | 1.35944 | 103.98385 | 28 ft | 16 kts | 31° |
| 2026-05-06 14:52 | 1.36049 | 103.98428 | 28 ft | 19 kts | 22° |
| 2026-05-06 14:52 | 1.36100 | 103.98521 | 27 ft | 18 kts | 109° |
| 2026-05-06 14:53 | 1.36087 | 103.98638 | 27 ft | 12 kts | 66° |